sensor_id;sensor_type;location;lat;lon;timestamp;P1;durP1;ratioP1;P2;durP2;ratioP2
13034;SDS011;6584;48.022;11.810;2023-02-23T00:01:36;9.77;;;6.95;;
13034;SDS011;6584;48.022;11.810;2023-02-23T00:03:58;10.60;;;7.25;;
13034;SDS011;6584;48.022;11.810;2023-02-23T00:06:26;9.77;;;7.57;;
13034;SDS011;6584;48.022;11.810;2023-02-23T00:08:53;8.52;;;7.20;;
13034;SDS011;6584;48.022;11.810;2023-02-23T00:11:19;11.30;;;7.47;;
13034;SDS011;6584;48.022;11.810;2023-02-23T00:13:46;11.32;;;8.70;;
13034;SDS011;6584;48.022;11.810;2023-02-23T00:16:23;9.80;;;8.13;;
13034;SDS011;6584;48.022;11.810;2023-02-23T00:18:55;9.55;;;7.40;;
13034;SDS011;6584;48.022;11.810;2023-02-23T00:21:30;10.02;;;7.43;;
13034;SDS011;6584;48.022;11.810;2023-02-23T00:24:00;9.48;;;8.10;;
13034;SDS011;6584;48.022;11.810;2023-02-23T00:26:28;10.02;;;7.85;;
13034;SDS011;6584;48.022;11.810;2023-02-23T00:28:58;10.05;;;7.70;;
13034;SDS011;6584;48.022;11.810;2023-02-23T00:31:28;11.13;;;8.10;;
13034;SDS011;6584;48.022;11.810;2023-02-23T00:33:56;10.77;;;8.13;;
13034;SDS011;6584;48.022;11.810;2023-02-23T00:36:23;11.00;;;8.30;;
13034;SDS011;6584;48.022;11.810;2023-02-23T00:38:57;9.75;;;8.18;;
13034;SDS011;6584;48.022;11.810;2023-02-23T00:41:27;9.85;;;7.90;;
13034;SDS011;6584;48.022;11.810;2023-02-23T00:43:54;10.85;;;8.50;;
13034;SDS011;6584;48.022;11.810;2023-02-23T00:46:22;11.40;;;8.68;;
13034;SDS011;6584;48.022;11.810;2023-02-23T00:48:51;9.02;;;7.60;;
13034;SDS011;6584;48.022;11.810;2023-02-23T00:51:20;9.57;;;8.23;;
13034;SDS011;6584;48.022;11.810;2023-02-23T00:53:46;11.52;;;8.85;;
13034;SDS011;6584;48.022;11.810;2023-02-23T00:56:12;12.52;;;9.20;;
13034;SDS011;6584;48.022;11.810;2023-02-23T00:58:39;10.55;;;8.30;;
13034;SDS011;6584;48.022;11.810;2023-02-23T01:01:06;12.75;;;9.45;;
13034;SDS011;6584;48.022;11.810;2023-02-23T01:03:36;13.20;;;9.85;;
13034;SDS011;6584;48.022;11.810;2023-02-23T01:06:04;11.55;;;9.60;;
13034;SDS011;6584;48.022;11.810;2023-02-23T01:08:31;10.95;;;8.80;;
13034;SDS011;6584;48.022;11.810;2023-02-23T01:10:58;12.25;;;9.65;;
13034;SDS011;6584;48.022;11.810;2023-02-23T01:13:24;12.90;;;9.32;;
13034;SDS011;6584;48.022;11.810;2023-02-23T01:15:51;11.60;;;9.35;;
13034;SDS011;6584;48.022;11.810;2023-02-23T01:18:18;11.75;;;8.93;;
13034;SDS011;6584;48.022;11.810;2023-02-23T01:20:44;12.07;;;9.80;;
13034;SDS011;6584;48.022;11.810;2023-02-23T01:23:13;11.68;;;9.20;;
13034;SDS011;6584;48.022;11.810;2023-02-23T01:25:41;11.77;;;9.38;;
13034;SDS011;6584;48.022;11.810;2023-02-23T01:28:08;12.48;;;9.73;;
13034;SDS011;6584;48.022;11.810;2023-02-23T01:30:34;10.48;;;9.38;;
13034;SDS011;6584;48.022;11.810;2023-02-23T01:33:00;10.65;;;9.02;;
13034;SDS011;6584;48.022;11.810;2023-02-23T01:35:26;13.38;;;10.40;;
13034;SDS011;6584;48.022;11.810;2023-02-23T01:37:52;14.15;;;10.10;;
13034;SDS011;6584;48.022;11.810;2023-02-23T01:40:19;11.23;;;9.52;;
13034;SDS011;6584;48.022;11.810;2023-02-23T01:42:56;15.23;;;11.05;;
13034;SDS011;6584;48.022;11.810;2023-02-23T01:45:41;14.60;;;10.45;;
13034;SDS011;6584;48.022;11.810;2023-02-23T01:48:09;14.35;;;10.52;;
13034;SDS011;6584;48.022;11.810;2023-02-23T01:50:41;13.48;;;10.13;;
13034;SDS011;6584;48.022;11.810;2023-02-23T01:53:08;13.63;;;10.07;;
13034;SDS011;6584;48.022;11.810;2023-02-23T01:55:34;13.88;;;11.10;;
13034;SDS011;6584;48.022;11.810;2023-02-23T01:58:02;12.00;;;10.07;;
13034;SDS011;6584;48.022;11.810;2023-02-23T02:00:32;13.75;;;11.07;;
13034;SDS011;6584;48.022;11.810;2023-02-23T02:03:01;15.93;;;11.13;;
13034;SDS011;6584;48.022;11.810;2023-02-23T02:05:32;13.65;;;10.45;;
13034;SDS011;6584;48.022;11.810;2023-02-23T02:08:00;14.52;;;10.93;;
13034;SDS011;6584;48.022;11.810;2023-02-23T02:10:27;14.75;;;11.30;;
13034;SDS011;6584;48.022;11.810;2023-02-23T02:13:05;13.45;;;10.45;;
13034;SDS011;6584;48.022;11.810;2023-02-23T02:15:34;16.05;;;10.80;;
13034;SDS011;6584;48.022;11.810;2023-02-23T02:18:25;13.63;;;10.80;;
13034;SDS011;6584;48.022;11.810;2023-02-23T02:40:21;15.93;;;11.65;;
13034;SDS011;6584;48.022;11.810;2023-02-23T02:42:59;14.70;;;11.25;;
13034;SDS011;6584;48.022;11.810;2023-02-23T02:48:23;14.75;;;11.27;;
13034;SDS011;6584;48.022;11.810;2023-02-23T02:51:06;19.80;;;11.98;;
13034;SDS011;6584;48.022;11.810;2023-02-23T02:56:32;16.88;;;12.23;;
13034;SDS011;6584;48.022;11.810;2023-02-23T02:59:04;15.68;;;11.80;;
13034;SDS011;6584;48.022;11.810;2023-02-23T03:01:59;16.27;;;12.27;;
13034;SDS011;6584;48.022;11.810;2023-02-23T03:04:43;15.93;;;11.88;;
13034;SDS011;6584;48.022;11.810;2023-02-23T03:10:41;15.30;;;12.35;;
13034;SDS011;6584;48.022;11.810;2023-02-23T03:19:32;17.42;;;13.40;;
13034;SDS011;6584;48.022;11.810;2023-02-23T03:22:26;18.80;;;13.52;;
13034;SDS011;6584;48.022;11.810;2023-02-23T03:28:32;16.92;;;13.35;;
13034;SDS011;6584;48.022;11.810;2023-02-23T03:31:27;16.02;;;12.20;;
13034;SDS011;6584;48.022;11.810;2023-02-23T03:37:47;14.15;;;11.52;;
13034;SDS011;6584;48.022;11.810;2023-02-23T03:40:39;15.45;;;12.15;;
13034;SDS011;6584;48.022;11.810;2023-02-23T03:43:27;17.00;;;12.43;;
13034;SDS011;6584;48.022;11.810;2023-02-23T03:46:15;13.43;;;11.45;;
13034;SDS011;6584;48.022;11.810;2023-02-23T03:49:01;16.13;;;13.05;;
13034;SDS011;6584;48.022;11.810;2023-02-23T03:51:49;17.27;;;12.63;;
13034;SDS011;6584;48.022;11.810;2023-02-23T03:54:43;16.85;;;11.75;;
13034;SDS011;6584;48.022;11.810;2023-02-23T03:57:33;17.15;;;12.65;;
13034;SDS011;6584;48.022;11.810;2023-02-23T04:00:22;16.38;;;13.15;;
13034;SDS011;6584;48.022;11.810;2023-02-23T04:03:11;16.15;;;13.10;;
13034;SDS011;6584;48.022;11.810;2023-02-23T04:05:59;14.63;;;12.05;;
13034;SDS011;6584;48.022;11.810;2023-02-23T04:08:45;16.23;;;12.48;;
13034;SDS011;6584;48.022;11.810;2023-02-23T04:11:49;14.85;;;12.13;;
13034;SDS011;6584;48.022;11.810;2023-02-23T04:17:38;16.98;;;13.57;;
13034;SDS011;6584;48.022;11.810;2023-02-23T04:20:05;16.83;;;13.32;;
13034;SDS011;6584;48.022;11.810;2023-02-23T04:22:32;18.90;;;13.80;;
13034;SDS011;6584;48.022;11.810;2023-02-23T04:24:59;18.73;;;13.70;;
13034;SDS011;6584;48.022;11.810;2023-02-23T04:27:25;16.17;;;12.88;;
13034;SDS011;6584;48.022;11.810;2023-02-23T04:29:51;21.10;;;14.07;;
13034;SDS011;6584;48.022;11.810;2023-02-23T04:32:17;17.98;;;13.60;;
13034;SDS011;6584;48.022;11.810;2023-02-23T04:34:44;20.70;;;15.00;;
13034;SDS011;6584;48.022;11.810;2023-02-23T04:37:10;16.63;;;13.55;;
13034;SDS011;6584;48.022;11.810;2023-02-23T04:39:37;19.23;;;14.10;;
13034;SDS011;6584;48.022;11.810;2023-02-23T04:42:03;17.70;;;13.43;;
13034;SDS011;6584;48.022;11.810;2023-02-23T04:44:29;17.75;;;13.90;;
13034;SDS011;6584;48.022;11.810;2023-02-23T04:46:55;19.25;;;14.68;;
13034;SDS011;6584;48.022;11.810;2023-02-23T04:49:21;18.08;;;13.80;;
13034;SDS011;6584;48.022;11.810;2023-02-23T04:51:47;17.15;;;13.65;;
13034;SDS011;6584;48.022;11.810;2023-02-23T04:54:13;19.92;;;14.70;;
13034;SDS011;6584;48.022;11.810;2023-02-23T04:56:38;17.05;;;13.77;;
13034;SDS011;6584;48.022;11.810;2023-02-23T04:59:04;18.17;;;13.75;;
13034;SDS011;6584;48.022;11.810;2023-02-23T05:01:30;16.92;;;13.75;;
13034;SDS011;6584;48.022;11.810;2023-02-23T05:03:56;18.25;;;13.65;;
13034;SDS011;6584;48.022;11.810;2023-02-23T05:06:24;17.25;;;13.73;;
13034;SDS011;6584;48.022;11.810;2023-02-23T05:08:49;17.88;;;13.68;;
13034;SDS011;6584;48.022;11.810;2023-02-23T05:11:15;19.23;;;13.35;;
13034;SDS011;6584;48.022;11.810;2023-02-23T05:13:40;19.00;;;13.52;;
13034;SDS011;6584;48.022;11.810;2023-02-23T05:16:06;17.75;;;13.32;;
13034;SDS011;6584;48.022;11.810;2023-02-23T05:18:32;16.27;;;12.88;;
13034;SDS011;6584;48.022;11.810;2023-02-23T05:21:05;15.65;;;12.68;;
13034;SDS011;6584;48.022;11.810;2023-02-23T05:23:33;16.58;;;12.55;;
13034;SDS011;6584;48.022;11.810;2023-02-23T05:26:00;18.13;;;12.75;;
13034;SDS011;6584;48.022;11.810;2023-02-23T05:28:28;16.15;;;13.23;;
13034;SDS011;6584;48.022;11.810;2023-02-23T05:30:53;19.25;;;13.35;;
13034;SDS011;6584;48.022;11.810;2023-02-23T05:33:19;14.70;;;12.00;;
13034;SDS011;6584;48.022;11.810;2023-02-23T05:35:45;14.50;;;12.73;;
13034;SDS011;6584;48.022;11.810;2023-02-23T05:38:11;15.73;;;12.35;;
13034;SDS011;6584;48.022;11.810;2023-02-23T05:40:37;16.92;;;13.38;;
13034;SDS011;6584;48.022;11.810;2023-02-23T05:43:03;16.88;;;13.13;;
13034;SDS011;6584;48.022;11.810;2023-02-23T05:45:29;19.02;;;13.10;;
13034;SDS011;6584;48.022;11.810;2023-02-23T05:47:55;18.50;;;13.80;;
13034;SDS011;6584;48.022;11.810;2023-02-23T05:50:20;16.90;;;12.35;;
13034;SDS011;6584;48.022;11.810;2023-02-23T05:52:46;19.00;;;13.02;;
13034;SDS011;6584;48.022;11.810;2023-02-23T05:55:12;16.75;;;13.95;;
13034;SDS011;6584;48.022;11.810;2023-02-23T05:57:37;16.25;;;12.35;;
13034;SDS011;6584;48.022;11.810;2023-02-23T06:00:06;16.15;;;12.57;;
13034;SDS011;6584;48.022;11.810;2023-02-23T06:02:32;15.85;;;12.80;;
13034;SDS011;6584;48.022;11.810;2023-02-23T06:04:58;18.08;;;13.35;;
13034;SDS011;6584;48.022;11.810;2023-02-23T06:07:24;19.10;;;12.85;;
13034;SDS011;6584;48.022;11.810;2023-02-23T06:09:49;16.05;;;13.18;;
13034;SDS011;6584;48.022;11.810;2023-02-23T06:12:15;15.02;;;12.10;;
13034;SDS011;6584;48.022;11.810;2023-02-23T06:14:41;14.77;;;12.13;;
13034;SDS011;6584;48.022;11.810;2023-02-23T06:17:06;17.67;;;13.43;;
13034;SDS011;6584;48.022;11.810;2023-02-23T06:19:32;15.20;;;13.07;;
13034;SDS011;6584;48.022;11.810;2023-02-23T06:21:58;14.23;;;11.25;;
13034;SDS011;6584;48.022;11.810;2023-02-23T06:24:24;16.75;;;12.52;;
13034;SDS011;6584;48.022;11.810;2023-02-23T06:26:50;14.75;;;12.55;;
13034;SDS011;6584;48.022;11.810;2023-02-23T06:29:16;14.88;;;11.85;;
13034;SDS011;6584;48.022;11.810;2023-02-23T06:31:41;22.63;;;13.00;;
13034;SDS011;6584;48.022;11.810;2023-02-23T06:34:07;15.15;;;12.25;;
13034;SDS011;6584;48.022;11.810;2023-02-23T06:36:34;17.05;;;12.98;;
13034;SDS011;6584;48.022;11.810;2023-02-23T06:39:00;18.70;;;12.95;;
13034;SDS011;6584;48.022;11.810;2023-02-23T06:41:26;15.43;;;12.60;;
13034;SDS011;6584;48.022;11.810;2023-02-23T06:43:51;16.27;;;12.82;;
13034;SDS011;6584;48.022;11.810;2023-02-23T06:46:17;14.77;;;12.82;;
13034;SDS011;6584;48.022;11.810;2023-02-23T06:48:43;16.90;;;12.80;;
13034;SDS011;6584;48.022;11.810;2023-02-23T06:51:09;16.42;;;12.68;;
13034;SDS011;6584;48.022;11.810;2023-02-23T06:53:35;16.50;;;12.75;;
13034;SDS011;6584;48.022;11.810;2023-02-23T06:56:01;16.30;;;13.05;;
13034;SDS011;6584;48.022;11.810;2023-02-23T06:58:27;18.45;;;13.30;;
13034;SDS011;6584;48.022;11.810;2023-02-23T07:00:54;15.07;;;12.30;;
13034;SDS011;6584;48.022;11.810;2023-02-23T07:03:20;17.38;;;12.73;;
13034;SDS011;6584;48.022;11.810;2023-02-23T07:05:47;19.13;;;14.30;;
13034;SDS011;6584;48.022;11.810;2023-02-23T07:08:14;15.95;;;12.48;;
13034;SDS011;6584;48.022;11.810;2023-02-23T07:10:40;19.30;;;14.88;;
13034;SDS011;6584;48.022;11.810;2023-02-23T07:13:06;20.25;;;14.27;;
13034;SDS011;6584;48.022;11.810;2023-02-23T07:15:32;18.70;;;14.88;;
13034;SDS011;6584;48.022;11.810;2023-02-23T07:17:59;15.48;;;12.65;;
13034;SDS011;6584;48.022;11.810;2023-02-23T07:20:25;17.70;;;13.65;;
13034;SDS011;6584;48.022;11.810;2023-02-23T07:22:51;16.58;;;13.05;;
13034;SDS011;6584;48.022;11.810;2023-02-23T07:25:16;16.02;;;12.65;;
13034;SDS011;6584;48.022;11.810;2023-02-23T07:27:42;18.27;;;13.35;;
13034;SDS011;6584;48.022;11.810;2023-02-23T07:30:09;16.65;;;13.32;;
13034;SDS011;6584;48.022;11.810;2023-02-23T07:32:35;18.88;;;13.35;;
13034;SDS011;6584;48.022;11.810;2023-02-23T07:35:01;16.73;;;12.90;;
13034;SDS011;6584;48.022;11.810;2023-02-23T07:37:28;15.25;;;12.45;;
13034;SDS011;6584;48.022;11.810;2023-02-23T07:39:53;16.38;;;12.73;;
13034;SDS011;6584;48.022;11.810;2023-02-23T07:42:19;17.45;;;13.30;;
13034;SDS011;6584;48.022;11.810;2023-02-23T07:44:44;14.18;;;12.15;;
13034;SDS011;6584;48.022;11.810;2023-02-23T07:47:10;17.67;;;12.95;;
13034;SDS011;6584;48.022;11.810;2023-02-23T07:49:36;14.93;;;12.02;;
13034;SDS011;6584;48.022;11.810;2023-02-23T07:52:01;16.27;;;13.30;;
13034;SDS011;6584;48.022;11.810;2023-02-23T07:54:27;17.17;;;13.63;;
13034;SDS011;6584;48.022;11.810;2023-02-23T07:56:53;18.63;;;13.40;;
13034;SDS011;6584;48.022;11.810;2023-02-23T07:59:18;16.33;;;12.95;;
13034;SDS011;6584;48.022;11.810;2023-02-23T08:01:44;16.13;;;13.45;;
13034;SDS011;6584;48.022;11.810;2023-02-23T08:04:10;16.52;;;13.75;;
13034;SDS011;6584;48.022;11.810;2023-02-23T08:06:35;18.40;;;12.98;;
13034;SDS011;6584;48.022;11.810;2023-02-23T08:09:01;17.70;;;12.60;;
13034;SDS011;6584;48.022;11.810;2023-02-23T08:11:28;19.45;;;14.10;;
13034;SDS011;6584;48.022;11.810;2023-02-23T08:13:54;16.70;;;13.80;;
13034;SDS011;6584;48.022;11.810;2023-02-23T08:16:25;16.83;;;13.05;;
13034;SDS011;6584;48.022;11.810;2023-02-23T08:18:57;18.27;;;12.93;;
13034;SDS011;6584;48.022;11.810;2023-02-23T08:21:24;19.15;;;12.68;;
13034;SDS011;6584;48.022;11.810;2023-02-23T08:23:52;15.13;;;12.10;;
13034;SDS011;6584;48.022;11.810;2023-02-23T08:26:17;17.02;;;13.20;;
13034;SDS011;6584;48.022;11.810;2023-02-23T08:28:43;19.20;;;13.68;;
13034;SDS011;6584;48.022;11.810;2023-02-23T08:31:11;15.38;;;12.65;;
13034;SDS011;6584;48.022;11.810;2023-02-23T08:33:38;16.45;;;12.88;;
13034;SDS011;6584;48.022;11.810;2023-02-23T08:36:04;13.98;;;11.95;;
13034;SDS011;6584;48.022;11.810;2023-02-23T08:38:31;16.75;;;13.30;;
13034;SDS011;6584;48.022;11.810;2023-02-23T08:40:59;19.17;;;13.18;;
13034;SDS011;6584;48.022;11.810;2023-02-23T08:43:26;13.95;;;12.32;;
13034;SDS011;6584;48.022;11.810;2023-02-23T08:45:51;17.48;;;12.43;;
13034;SDS011;6584;48.022;11.810;2023-02-23T08:48:17;17.80;;;12.52;;
13034;SDS011;6584;48.022;11.810;2023-02-23T08:50:43;16.55;;;12.30;;
13034;SDS011;6584;48.022;11.810;2023-02-23T08:53:08;16.60;;;12.90;;
13034;SDS011;6584;48.022;11.810;2023-02-23T08:55:36;17.45;;;13.57;;
13034;SDS011;6584;48.022;11.810;2023-02-23T08:58:02;17.88;;;13.23;;
13034;SDS011;6584;48.022;11.810;2023-02-23T09:00:27;18.27;;;13.25;;
13034;SDS011;6584;48.022;11.810;2023-02-23T09:02:53;14.93;;;12.82;;
13034;SDS011;6584;48.022;11.810;2023-02-23T09:05:18;16.80;;;13.15;;
13034;SDS011;6584;48.022;11.810;2023-02-23T09:07:44;15.55;;;13.27;;
13034;SDS011;6584;48.022;11.810;2023-02-23T09:10:11;14.75;;;12.57;;
13034;SDS011;6584;48.022;11.810;2023-02-23T09:12:39;14.70;;;12.80;;
13034;SDS011;6584;48.022;11.810;2023-02-23T09:15:05;16.52;;;12.50;;
13034;SDS011;6584;48.022;11.810;2023-02-23T09:17:31;14.73;;;12.68;;
13034;SDS011;6584;48.022;11.810;2023-02-23T09:19:56;14.77;;;12.15;;
13034;SDS011;6584;48.022;11.810;2023-02-23T09:22:22;13.90;;;12.07;;
13034;SDS011;6584;48.022;11.810;2023-02-23T09:24:47;17.08;;;12.55;;
13034;SDS011;6584;48.022;11.810;2023-02-23T09:27:13;17.70;;;12.13;;
13034;SDS011;6584;48.022;11.810;2023-02-23T09:29:39;16.23;;;12.93;;
13034;SDS011;6584;48.022;11.810;2023-02-23T09:32:06;18.75;;;12.02;;
13034;SDS011;6584;48.022;11.810;2023-02-23T09:34:32;14.60;;;11.73;;
13034;SDS011;6584;48.022;11.810;2023-02-23T09:36:59;12.82;;;10.90;;
13034;SDS011;6584;48.022;11.810;2023-02-23T09:39:26;12.73;;;11.10;;
13034;SDS011;6584;48.022;11.810;2023-02-23T09:41:54;12.30;;;10.85;;
13034;SDS011;6584;48.022;11.810;2023-02-23T09:44:45;15.00;;;11.30;;
13034;SDS011;6584;48.022;11.810;2023-02-23T09:47:30;12.60;;;11.13;;
13034;SDS011;6584;48.022;11.810;2023-02-23T09:50:27;14.18;;;11.23;;
13034;SDS011;6584;48.022;11.810;2023-02-23T09:52:59;14.15;;;10.80;;
13034;SDS011;6584;48.022;11.810;2023-02-23T09:55:28;12.93;;;10.85;;
13034;SDS011;6584;48.022;11.810;2023-02-23T09:57:55;13.10;;;11.10;;
13034;SDS011;6584;48.022;11.810;2023-02-23T10:00:27;13.00;;;10.85;;
13034;SDS011;6584;48.022;11.810;2023-02-23T10:02:59;12.77;;;10.23;;
13034;SDS011;6584;48.022;11.810;2023-02-23T10:05:37;11.32;;;9.68;;
13034;SDS011;6584;48.022;11.810;2023-02-23T10:08:12;11.23;;;9.68;;
13034;SDS011;6584;48.022;11.810;2023-02-23T10:10:56;12.27;;;9.35;;
13034;SDS011;6584;48.022;11.810;2023-02-23T10:13:37;11.43;;;9.32;;
13034;SDS011;6584;48.022;11.810;2023-02-23T10:16:18;16.38;;;9.38;;
13034;SDS011;6584;48.022;11.810;2023-02-23T10:18:53;13.27;;;9.15;;
13034;SDS011;6584;48.022;11.810;2023-02-23T10:21:32;11.55;;;9.27;;
13034;SDS011;6584;48.022;11.810;2023-02-23T10:31:58;8.75;;;7.85;;
13034;SDS011;6584;48.022;11.810;2023-02-23T10:34:36;8.60;;;7.70;;
13034;SDS011;6584;48.022;11.810;2023-02-23T10:37:05;10.45;;;8.27;;
13034;SDS011;6584;48.022;11.810;2023-02-23T10:39:34;9.57;;;7.95;;
13034;SDS011;6584;48.022;11.810;2023-02-23T10:42:03;10.77;;;8.48;;
13034;SDS011;6584;48.022;11.810;2023-02-23T10:44:31;9.70;;;8.20;;
13034;SDS011;6584;48.022;11.810;2023-02-23T10:46:58;11.63;;;7.72;;
13034;SDS011;6584;48.022;11.810;2023-02-23T10:49:40;8.95;;;7.57;;
13034;SDS011;6584;48.022;11.810;2023-02-23T10:52:20;9.48;;;7.72;;
13034;SDS011;6584;48.022;11.810;2023-02-23T10:54:51;9.85;;;7.03;;
13034;SDS011;6584;48.022;11.810;2023-02-23T10:57:28;7.20;;;6.38;;
13034;SDS011;6584;48.022;11.810;2023-02-23T10:59:58;8.32;;;7.00;;
13034;SDS011;6584;48.022;11.810;2023-02-23T11:02:44;9.57;;;7.45;;
13034;SDS011;6584;48.022;11.810;2023-02-23T11:08:08;8.38;;;7.07;;
13034;SDS011;6584;48.022;11.810;2023-02-23T11:10:40;7.45;;;6.43;;
13034;SDS011;6584;48.022;11.810;2023-02-23T11:13:17;7.38;;;6.32;;
13034;SDS011;6584;48.022;11.810;2023-02-23T11:15:46;7.45;;;6.65;;
13034;SDS011;6584;48.022;11.810;2023-02-23T11:18:17;9.18;;;6.63;;
13034;SDS011;6584;48.022;11.810;2023-02-23T11:20:46;8.10;;;6.63;;
13034;SDS011;6584;48.022;11.810;2023-02-23T11:23:23;7.68;;;6.47;;
13034;SDS011;6584;48.022;11.810;2023-02-23T11:25:53;7.38;;;6.60;;
13034;SDS011;6584;48.022;11.810;2023-02-23T11:28:25;9.95;;;6.60;;
13034;SDS011;6584;48.022;11.810;2023-02-23T11:30:54;17.63;;;7.43;;
13034;SDS011;6584;48.022;11.810;2023-02-23T11:33:28;9.07;;;6.97;;
13034;SDS011;6584;48.022;11.810;2023-02-23T11:36:00;9.30;;;6.93;;
13034;SDS011;6584;48.022;11.810;2023-02-23T11:39:30;8.38;;;7.07;;
13034;SDS011;6584;48.022;11.810;2023-02-23T11:44:41;8.45;;;7.22;;
13034;SDS011;6584;48.022;11.810;2023-02-23T11:47:13;8.30;;;6.90;;
13034;SDS011;6584;48.022;11.810;2023-02-23T11:49:45;9.48;;;6.43;;
13034;SDS011;6584;48.022;11.810;2023-02-23T11:52:14;11.10;;;6.60;;
13034;SDS011;6584;48.022;11.810;2023-02-23T11:54:53;8.80;;;6.47;;
13034;SDS011;6584;48.022;11.810;2023-02-23T11:57:27;7.20;;;6.45;;
13034;SDS011;6584;48.022;11.810;2023-02-23T11:59:56;9.30;;;6.50;;
13034;SDS011;6584;48.022;11.810;2023-02-23T12:02:27;7.45;;;6.30;;
13034;SDS011;6584;48.022;11.810;2023-02-23T12:05:02;6.85;;;5.38;;
13034;SDS011;6584;48.022;11.810;2023-02-23T12:07:35;6.35;;;5.30;;
13034;SDS011;6584;48.022;11.810;2023-02-23T12:10:20;7.07;;;4.60;;
13034;SDS011;6584;48.022;11.810;2023-02-23T12:16:09;5.45;;;4.88;;
13034;SDS011;6584;48.022;11.810;2023-02-23T12:21:38;7.63;;;5.28;;
13034;SDS011;6584;48.022;11.810;2023-02-23T12:27:03;6.90;;;4.93;;
13034;SDS011;6584;48.022;11.810;2023-02-23T12:29:46;5.40;;;4.70;;
13034;SDS011;6584;48.022;11.810;2023-02-23T12:32:25;6.70;;;5.10;;
13034;SDS011;6584;48.022;11.810;2023-02-23T12:37:56;5.20;;;4.70;;
13034;SDS011;6584;48.022;11.810;2023-02-23T12:40:37;5.68;;;5.07;;
13034;SDS011;6584;48.022;11.810;2023-02-23T12:43:10;6.95;;;4.47;;
13034;SDS011;6584;48.022;11.810;2023-02-23T12:50:41;5.20;;;4.70;;
13034;SDS011;6584;48.022;11.810;2023-02-23T12:53:48;8.40;;;5.13;;
13034;SDS011;6584;48.022;11.810;2023-02-23T12:59:05;4.95;;;4.25;;
13034;SDS011;6584;48.022;11.810;2023-02-23T13:07:23;7.45;;;4.60;;
13034;SDS011;6584;48.022;11.810;2023-02-23T13:13:01;6.50;;;4.25;;
13034;SDS011;6584;48.022;11.810;2023-02-23T13:15:48;5.68;;;4.60;;
13034;SDS011;6584;48.022;11.810;2023-02-23T13:18:33;6.13;;;4.20;;
13034;SDS011;6584;48.022;11.810;2023-02-23T13:21:28;5.72;;;4.43;;
13034;SDS011;6584;48.022;11.810;2023-02-23T13:26:50;4.30;;;3.90;;
13034;SDS011;6584;48.022;11.810;2023-02-23T13:32:04;5.03;;;3.95;;
13034;SDS011;6584;48.022;11.810;2023-02-23T13:34:38;4.07;;;3.67;;
13034;SDS011;6584;48.022;11.810;2023-02-23T13:37:21;3.92;;;3.10;;
13034;SDS011;6584;48.022;11.810;2023-02-23T13:42:47;4.88;;;3.35;;
13034;SDS011;6584;48.022;11.810;2023-02-23T13:45:27;4.00;;;3.28;;
13034;SDS011;6584;48.022;11.810;2023-02-23T13:48:12;4.30;;;2.70;;
13034;SDS011;6584;48.022;11.810;2023-02-23T13:53:26;5.45;;;3.30;;
13034;SDS011;6584;48.022;11.810;2023-02-23T13:55:52;3.58;;;3.20;;
13034;SDS011;6584;48.022;11.810;2023-02-23T13:58:31;6.10;;;3.30;;
13034;SDS011;6584;48.022;11.810;2023-02-23T14:03:39;4.40;;;3.10;;
13034;SDS011;6584;48.022;11.810;2023-02-23T14:06:09;3.97;;;3.40;;
13034;SDS011;6584;48.022;11.810;2023-02-23T14:08:37;4.45;;;3.17;;
13034;SDS011;6584;48.022;11.810;2023-02-23T14:11:06;5.03;;;3.10;;
13034;SDS011;6584;48.022;11.810;2023-02-23T14:13:33;3.25;;;2.63;;
13034;SDS011;6584;48.022;11.810;2023-02-23T14:16:06;5.28;;;3.05;;
13034;SDS011;6584;48.022;11.810;2023-02-23T14:21:34;4.53;;;2.90;;
13034;SDS011;6584;48.022;11.810;2023-02-23T14:32:39;5.80;;;2.92;;
13034;SDS011;6584;48.022;11.810;2023-02-23T14:38:22;4.03;;;2.90;;
13034;SDS011;6584;48.022;11.810;2023-02-23T14:40:52;4.35;;;3.55;;
13034;SDS011;6584;48.022;11.810;2023-02-23T14:46:00;6.13;;;3.80;;
13034;SDS011;6584;48.022;11.810;2023-02-23T14:48:29;6.18;;;4.57;;
13034;SDS011;6584;48.022;11.810;2023-02-23T14:51:11;4.18;;;3.72;;
13034;SDS011;6584;48.022;11.810;2023-02-23T14:53:45;5.95;;;3.88;;
13034;SDS011;6584;48.022;11.810;2023-02-23T14:56:20;5.28;;;3.97;;
13034;SDS011;6584;48.022;11.810;2023-02-23T14:58:50;4.50;;;3.55;;
13034;SDS011;6584;48.022;11.810;2023-02-23T15:01:30;5.60;;;4.20;;
13034;SDS011;6584;48.022;11.810;2023-02-23T15:04:03;4.72;;;3.67;;
13034;SDS011;6584;48.022;11.810;2023-02-23T15:06:32;7.50;;;4.10;;
13034;SDS011;6584;48.022;11.810;2023-02-23T15:08:57;5.65;;;4.00;;
13034;SDS011;6584;48.022;11.810;2023-02-23T15:11:23;5.70;;;3.45;;
13034;SDS011;6584;48.022;11.810;2023-02-23T15:13:49;6.75;;;4.80;;
13034;SDS011;6584;48.022;11.810;2023-02-23T15:16:17;7.95;;;4.75;;
13034;SDS011;6584;48.022;11.810;2023-02-23T15:21:55;8.10;;;4.63;;
13034;SDS011;6584;48.022;11.810;2023-02-23T15:25:07;8.30;;;5.32;;
13034;SDS011;6584;48.022;11.810;2023-02-23T15:27:20;9.35;;;4.88;;
13034;SDS011;6584;48.022;11.810;2023-02-23T15:29:50;9.43;;;5.32;;
13034;SDS011;6584;48.022;11.810;2023-02-23T15:32:17;5.88;;;4.75;;
13034;SDS011;6584;48.022;11.810;2023-02-23T15:34:46;8.18;;;4.75;;
13034;SDS011;6584;48.022;11.810;2023-02-23T15:39:38;6.38;;;5.25;;
13034;SDS011;6584;48.022;11.810;2023-02-23T15:42:21;5.55;;;4.47;;
13034;SDS011;6584;48.022;11.810;2023-02-23T15:44:56;7.97;;;5.15;;
13034;SDS011;6584;48.022;11.810;2023-02-23T15:47:29;6.90;;;5.00;;
13034;SDS011;6584;48.022;11.810;2023-02-23T15:50:16;5.50;;;4.90;;
13034;SDS011;6584;48.022;11.810;2023-02-23T15:52:45;8.32;;;5.03;;
13034;SDS011;6584;48.022;11.810;2023-02-23T15:55:21;5.80;;;4.10;;
13034;SDS011;6584;48.022;11.810;2023-02-23T15:57:54;6.05;;;4.38;;
13034;SDS011;6584;48.022;11.810;2023-02-23T16:00:32;6.25;;;4.50;;
13034;SDS011;6584;48.022;11.810;2023-02-23T16:03:04;7.88;;;4.60;;
13034;SDS011;6584;48.022;11.810;2023-02-23T16:05:31;6.90;;;3.88;;
13034;SDS011;6584;48.022;11.810;2023-02-23T16:08:23;6.00;;;4.13;;
13034;SDS011;6584;48.022;11.810;2023-02-23T16:10:50;5.25;;;3.63;;
13034;SDS011;6584;48.022;11.810;2023-02-23T16:13:26;5.65;;;3.90;;
13034;SDS011;6584;48.022;11.810;2023-02-23T16:15:53;6.10;;;4.40;;
13034;SDS011;6584;48.022;11.810;2023-02-23T16:18:21;5.40;;;3.80;;
13034;SDS011;6584;48.022;11.810;2023-02-23T16:20:58;7.13;;;3.65;;
13034;SDS011;6584;48.022;11.810;2023-02-23T16:23:27;5.53;;;3.35;;
13034;SDS011;6584;48.022;11.810;2023-02-23T16:26:22;5.05;;;3.60;;
13034;SDS011;6584;48.022;11.810;2023-02-23T16:28:53;6.13;;;3.95;;
13034;SDS011;6584;48.022;11.810;2023-02-23T16:31:22;5.68;;;4.63;;
13034;SDS011;6584;48.022;11.810;2023-02-23T16:33:53;4.97;;;4.00;;
13034;SDS011;6584;48.022;11.810;2023-02-23T16:36:35;7.13;;;4.65;;
13034;SDS011;6584;48.022;11.810;2023-02-23T16:39:03;7.65;;;3.88;;
13034;SDS011;6584;48.022;11.810;2023-02-23T16:41:34;3.67;;;3.13;;
13034;SDS011;6584;48.022;11.810;2023-02-23T16:44:00;3.40;;;3.10;;
13034;SDS011;6584;48.022;11.810;2023-02-23T16:46:29;5.22;;;3.22;;
13034;SDS011;6584;48.022;11.810;2023-02-23T16:49:14;4.50;;;3.30;;
13034;SDS011;6584;48.022;11.810;2023-02-23T16:51:40;4.85;;;3.05;;
13034;SDS011;6584;48.022;11.810;2023-02-23T16:54:05;5.35;;;3.78;;
13034;SDS011;6584;48.022;11.810;2023-02-23T16:56:32;6.57;;;4.65;;
13034;SDS011;6584;48.022;11.810;2023-02-23T16:59:00;7.95;;;4.85;;
13034;SDS011;6584;48.022;11.810;2023-02-23T17:01:27;6.78;;;5.25;;